LTCG

Trabzon Airport

Airport
ICAO code
LTCG
IATA Code
TZX
Summary
ICAO Region
EUR
ICAO Territory
Location

Trabzon,

Serving
Trabzon
Elevation
104 ft
Coordinates
40° 59' 43" N , 39° 47' 20" E
Metar
Observation
LTCG 032020Z 21013KT CAVOK 09/M09 Q1019 BECMG TL2120 VRB02KT
Station
Trabzon
Date/Time
2023-02-03 20:20:00
Wind direction
210°
Wind speed
13 kts
Lowest cloud amount
clouds and visibility OK
Temperature
9°C
Dew point
-9°C
Humidity
26%
QNH
1019 hPa
Weather condition
n/a

Trabzon Airport is an airport near the city of Trabzon in the eastern Black Sea region of Turkey.

Runways

Designator Length Width Surface Rops
11/29 2640 45 ASP Yes/Yes

Airport map

Aerial View

SKYbrary Partners:

Safety knowledge contributed by: